Time;durP1;ratioP1;P1;durP2;ratioP2;P2;SDS_P1;SDS_P2;PMS_P1;PMS_P2;Temp;Humidity;BMP_temperature;BMP_pressure;BME280_temperature;BME280_humidity;BME280_pressure;Samples;Min_cycle;Max_cycle;Signal;HPM_P1;HPM_P2
2022/06/21 00:01:48;;;;;;;1.00;0.80;;;26.00;61.40;;;;;;5015844;28;20575;-85
2022/06/21 00:04:15;;;;;;;1.23;1.13;;;26.00;61.50;;;;;;5015902;28;20448;-84
2022/06/21 00:06:42;;;;;;;1.10;0.90;;;26.00;61.40;;;;;;5015816;28;20462;-92
2022/06/21 00:09:12;;;;;;;1.00;0.90;;;26.00;61.30;;;;;;5015764;28;20460;-92
2022/06/21 00:11:39;;;;;;;1.13;1.03;;;26.00;61.40;;;;;;5015707;28;20543;-85
2022/06/21 00:14:06;;;;;;;1.00;0.80;;;26.00;61.40;;;;;;5015279;28;20531;-85
2022/06/21 00:16:35;;;;;;;1.47;1.00;;;26.00;61.40;;;;;;5014626;28;20490;-87
2022/06/21 00:19:03;;;;;;;1.10;1.00;;;26.00;61.50;;;;;;5015525;28;20443;-85
2022/06/21 00:21:33;;;;;;;1.20;1.10;;;26.00;61.30;;;;;;5015309;28;21006;-85
2022/06/21 00:24:00;;;;;;;1.20;1.00;;;26.00;61.50;;;;;;5015483;28;20961;-91
2022/06/21 00:26:30;;;;;;;1.60;1.17;;;26.00;61.40;;;;;;5015352;28;20519;-92
2022/06/21 00:28:57;;;;;;;1.33;1.20;;;26.00;61.40;;;;;;5015389;28;20444;-85
2022/06/21 00:31:28;;;;;;;1.00;0.90;;;26.00;61.40;;;;;;5015471;28;20439;-90
2022/06/21 00:33:57;;;;;;;1.20;1.00;;;26.00;61.40;;;;;;5015580;28;20458;-90
2022/06/21 00:36:27;;;;;;;1.10;0.90;;;26.00;61.40;;;;;;5015319;28;20927;-85
2022/06/21 00:38:56;;;;;;;1.00;0.80;;;26.00;61.40;;;;;;5015257;28;20510;-86
2022/06/21 00:41:37;;;;;;;1.60;1.00;;;26.00;61.40;;;;;;5014995;28;20851;-85
2022/06/21 00:44:06;;;;;;;1.00;0.90;;;26.00;61.50;;;;;;5015140;28;20447;-84
2022/06/21 00:46:37;;;;;;;1.40;1.07;;;26.00;61.40;;;;;;5015034;28;20459;-85
2022/06/21 00:49:12;;;;;;;1.20;1.10;;;26.00;61.40;;;;;;5015075;28;20939;-85
2022/06/21 00:51:42;;;;;;;1.13;1.03;;;25.90;61.40;;;;;;5015023;28;20447;-85
2022/06/21 00:54:17;;;;;;;1.00;0.80;;;25.90;61.40;;;;;;5015013;28;20439;-85
2022/06/21 00:56:51;;;;;;;1.00;0.90;;;26.00;61.40;;;;;;5014973;28;20439;-84
2022/06/21 00:59:20;;;;;;;1.13;1.00;;;26.00;61.50;;;;;;5014953;28;20518;-85
2022/06/21 01:01:48;;;;;;;1.20;1.10;;;25.90;61.50;;;;;;5014591;28;21053;-92
2022/06/21 01:04:20;;;;;;;1.20;1.10;;;25.90;61.40;;;;;;5014654;28;20447;-85
2022/06/21 01:06:50;;;;;;;1.40;1.00;;;25.90;61.40;;;;;;5014815;28;20843;-90
2022/06/21 01:09:22;;;;;;;1.20;1.10;;;25.90;61.40;;;;;;5014620;28;20451;-85
2022/06/21 01:11:52;;;;;;;1.20;1.10;;;25.90;61.40;;;;;;5014499;28;20442;-85
2022/06/21 01:14:23;;;;;;;1.20;1.10;;;25.90;61.40;;;;;;5014533;28;20982;-84
2022/06/21 01:16:50;;;;;;;2.03;1.30;;;25.90;61.40;;;;;;5014599;28;20555;-85
2022/06/21 01:19:25;;;;;;;1.00;0.90;;;25.90;61.40;;;;;;5014500;28;20443;-84
2022/06/21 01:21:56;;;;;;;1.10;1.00;;;25.90;61.40;;;;;;5014181;28;20486;-85
2022/06/21 01:24:34;;;;;;;1.30;1.00;;;25.90;61.40;;;;;;5014441;28;20448;-84
2022/06/21 01:27:04;;;;;;;1.20;1.10;;;26.00;61.50;;;;;;5014034;28;21046;-84
2022/06/21 01:29:33;;;;;;;1.40;1.30;;;25.90;61.40;;;;;;5014250;28;20526;-85
2022/06/21 01:32:04;;;;;;;1.27;1.17;;;25.90;62.30;;;;;;5014214;28;20494;-85
2022/06/21 01:34:31;;;;;;;1.00;0.90;;;25.90;61.50;;;;;;5014191;28;20795;-91
2022/06/21 01:37:03;;;;;;;1.00;0.90;;;25.90;61.50;;;;;;5014172;28;20442;-85
2022/06/21 01:39:33;;;;;;;1.50;1.40;;;25.90;61.40;;;;;;5014100;28;20799;-91
2022/06/21 01:42:06;;;;;;;0.90;0.80;;;25.90;61.40;;;;;;5013763;28;20586;-84
2022/06/21 01:44:37;;;;;;;1.90;1.00;;;25.90;61.40;;;;;;5014256;28;20450;-85
2022/06/21 01:47:07;;;;;;;1.10;1.00;;;25.90;61.40;;;;;;5013921;28;20464;-85
2022/06/21 01:49:36;;;;;;;1.20;0.97;;;25.90;61.40;;;;;;5013954;28;20807;-84
2022/06/21 01:52:09;;;;;;;1.10;0.90;;;25.90;61.40;;;;;;5013937;28;20439;-85
2022/06/21 01:54:40;;;;;;;1.40;1.10;;;25.90;61.40;;;;;;5014046;28;20439;-85
2022/06/21 01:57:09;;;;;;;2.50;1.10;;;25.80;61.40;;;;;;5013907;28;20522;-85
2022/06/21 01:59:40;;;;;;;1.17;1.07;;;25.90;61.40;;;;;;5013328;28;20439;-90
2022/06/21 02:02:12;;;;;;;1.00;0.90;;;25.90;61.50;;;;;;5013786;28;20490;-85
2022/06/21 02:04:44;;;;;;;0.90;0.73;;;25.90;61.50;;;;;;5013769;28;20439;-85
2022/06/21 02:07:18;;;;;;;1.00;0.90;;;25.90;61.50;;;;;;5013580;28;20435;-87
2022/06/21 02:09:49;;;;;;;1.10;1.00;;;25.90;61.50;;;;;;5013655;28;20878;-85
2022/06/21 02:12:18;;;;;;;1.73;0.93;;;25.90;61.50;;;;;;5013674;28;20526;-91
2022/06/21 02:14:49;;;;;;;1.20;1.10;;;25.80;61.40;;;;;;5013518;28;20451;-85
2022/06/21 02:17:19;;;;;;;1.30;1.20;;;25.90;61.50;;;;;;5013452;28;20460;-85
2022/06/21 02:19:50;;;;;;;1.50;1.20;;;25.90;61.50;;;;;;5013352;28;20440;-84
2022/06/21 02:22:20;;;;;;;1.50;1.40;;;25.80;61.40;;;;;;5013442;28;20487;-84
2022/06/21 02:24:47;;;;;;;1.10;0.80;;;25.80;61.40;;;;;;5013685;28;20931;-92
2022/06/21 02:27:19;;;;;;;1.27;1.17;;;25.80;61.50;;;;;;5013230;28;20566;-85
2022/06/21 02:29:51;;;;;;;1.17;1.07;;;25.80;61.40;;;;;;5013406;28;20435;-84
2022/06/21 02:32:24;;;;;;;1.20;1.10;;;25.90;61.50;;;;;;5013486;28;20447;-92
2022/06/21 02:34:56;;;;;;;1.17;1.07;;;25.80;61.40;;;;;;5013352;28;20443;-84
2022/06/21 02:37:25;;;;;;;1.03;0.93;;;25.80;61.40;;;;;;5013419;28;20444;-91
2022/06/21 02:39:53;;;;;;;1.10;0.90;;;25.80;61.50;;;;;;5016691;28;20450;-84
2022/06/21 02:42:27;;;;;;;1.27;1.17;;;25.80;61.40;;;;;;5017419;28;20493;-84
2022/06/21 02:44:59;;;;;;;1.20;1.07;;;25.80;61.40;;;;;;5017339;28;20455;-84
2022/06/21 02:47:30;;;;;;;1.20;1.00;;;25.80;61.40;;;;;;5017184;28;20470;-84
2022/06/21 02:50:02;;;;;;;1.10;0.80;;;25.80;61.90;;;;;;5017163;28;20447;-84
2022/06/21 02:52:33;;;;;;;1.40;1.20;;;25.80;61.40;;;;;;5017289;28;20542;-84
2022/06/21 02:55:04;;;;;;;1.20;1.10;;;25.80;61.40;;;;;;5017293;28;20479;-84
2022/06/21 02:57:36;;;;;;;1.17;1.07;;;25.80;61.50;;;;;;5017067;28;20440;-84
2022/06/21 03:00:07;;;;;;;1.63;1.10;;;25.80;61.50;;;;;;5017070;28;20809;-91
2022/06/21 03:02:34;;;;;;;1.10;1.00;;;25.80;61.50;;;;;;5016970;28;21001;-84
2022/06/21 03:05:06;;;;;;;1.20;1.10;;;25.80;61.40;;;;;;5017020;28;20445;-84
2022/06/21 03:07:35;;;;;;;1.23;1.00;;;25.80;61.50;;;;;;5016912;28;20443;-84
2022/06/21 03:10:03;;;;;;;1.10;1.00;;;25.80;61.40;;;;;;5016988;28;20532;-84
2022/06/21 03:12:33;;;;;;;1.10;1.00;;;25.80;61.50;;;;;;5016814;28;20444;-84
2022/06/21 03:15:05;;;;;;;1.40;1.20;;;25.80;61.50;;;;;;5016830;28;20456;-84
2022/06/21 03:17:37;;;;;;;1.20;1.10;;;25.80;61.50;;;;;;5016666;28;20473;-84
2022/06/21 03:20:11;;;;;;;1.30;1.10;;;25.80;61.50;;;;;;5016715;28;21053;-84
2022/06/21 03:22:39;;;;;;;1.10;1.00;;;25.80;61.50;;;;;;5016541;28;20498;-84
2022/06/21 03:25:13;;;;;;;1.03;0.90;;;25.80;61.50;;;;;;5016650;28;20450;-84
2022/06/21 03:27:52;;;;;;;1.00;0.90;;;25.80;61.50;;;;;;5016400;28;20892;-84
2022/06/21 03:30:20;;;;;;;1.10;0.93;;;25.80;61.40;;;;;;5016698;28;20856;-84
2022/06/21 03:32:49;;;;;;;1.33;1.23;;;25.80;61.50;;;;;;5016354;28;20440;-84
2022/06/21 03:35:16;;;;;;;1.30;1.00;;;25.80;61.50;;;;;;5016420;28;20538;-84
2022/06/21 03:37:44;;;;;;;1.10;1.00;;;25.80;61.50;;;;;;5016193;28;20447;-84
2022/06/21 03:43:08;;;;;;;1.20;1.10;;;25.80;61.40;;;;;;5016228;28;20565;-91
2022/06/21 03:45:40;;;;;;;1.13;1.03;;;25.80;61.50;;;;;;5016240;28;20447;-84
2022/06/21 03:48:13;;;;;;;1.30;1.20;;;25.80;61.50;;;;;;5016144;28;20554;-84
2022/06/21 03:50:46;;;;;;;1.07;0.97;;;25.80;61.50;;;;;;5015899;28;20473;-84
2022/06/21 03:53:17;;;;;;;1.00;0.90;;;25.80;61.50;;;;;;5016037;28;20553;-84
2022/06/21 03:55:54;;;;;;;1.00;0.83;;;25.80;61.50;;;;;;5015995;28;20949;-84
2022/06/21 03:58:37;;;;;;;1.10;1.00;;;25.80;61.50;;;;;;5015933;28;20440;-85
2022/06/21 04:01:08;;;;;;;1.10;0.90;;;25.80;61.50;;;;;;5015954;28;20442;-90
2022/06/21 04:03:41;;;;;;;1.10;1.00;;;25.80;61.50;;;;;;5015864;28;20491;-84
2022/06/21 04:06:16;;;;;;;1.10;1.00;;;25.80;61.50;;;;;;5015925;28;20535;-84
2022/06/21 04:08:50;;;;;;;1.10;1.00;;;25.80;61.50;;;;;;5015868;28;20449;-84
2022/06/21 04:11:22;;;;;;;1.00;0.90;;;25.70;61.50;;;;;;5015796;28;20446;-85
2022/06/21 04:13:57;;;;;;;1.30;1.20;;;25.70;61.40;;;;;;5015914;28;20925;-84
2022/06/21 04:16:32;;;;;;;1.73;1.07;;;25.80;61.50;;;;;;5015672;28;20974;-84
2022/06/21 04:19:02;;;;;;;1.00;0.90;;;25.80;61.50;;;;;;5015376;28;20450;-84
2022/06/21 04:21:39;;;;;;;1.20;1.10;;;25.70;61.50;;;;;;5015703;28;20444;-84
2022/06/21 04:24:13;;;;;;;1.10;1.00;;;25.70;61.50;;;;;;5015462;28;20436;-84
2022/06/21 04:26:46;;;;;;;1.00;0.90;;;25.70;61.50;;;;;;5015390;28;20475;-84
2022/06/21 04:29:18;;;;;;;1.17;1.00;;;25.70;61.50;;;;;;5015536;28;20440;-84
2022/06/21 04:31:50;;;;;;;1.30;1.20;;;25.70;61.40;;;;;;5015438;28;20439;-84
2022/06/21 04:34:22;;;;;;;1.47;1.00;;;25.70;61.50;;;;;;5015205;28;20450;-85
2022/06/21 04:36:53;;;;;;;0.97;0.83;;;25.70;61.40;;;;;;5015324;28;20440;-85
2022/06/21 04:39:26;;;;;;;1.13;1.03;;;25.70;61.50;;;;;;5015133;28;21017;-90
2022/06/21 04:41:58;;;;;;;1.53;1.10;;;25.70;61.50;;;;;;5014968;28;20538;-84
2022/06/21 04:44:32;;;;;;;0.93;0.80;;;25.70;61.50;;;;;;5015200;28;20536;-85
2022/06/21 04:47:05;;;;;;;1.20;1.00;;;25.70;61.40;;;;;;5014924;28;20465;-84
2022/06/21 04:49:36;;;;;;;1.80;0.93;;;25.70;61.50;;;;;;5015083;28;20450;-84
2022/06/21 04:52:09;;;;;;;1.13;1.03;;;25.70;61.50;;;;;;5014954;28;20439;-84
2022/06/21 04:54:38;;;;;;;1.20;1.00;;;25.70;61.50;;;;;;5015011;28;20471;-84
2022/06/21 04:57:08;;;;;;;1.40;1.30;;;25.70;61.50;;;;;;5014960;28;20527;-84
2022/06/21 04:59:40;;;;;;;1.00;0.90;;;25.70;61.50;;;;;;5014787;28;20446;-84
2022/06/21 05:02:13;;;;;;;1.03;0.90;;;25.70;61.50;;;;;;5013947;28;20490;-84
2022/06/21 05:04:42;;;;;;;1.20;0.90;;;25.70;61.50;;;;;;5014789;28;20926;-84
2022/06/21 05:07:14;;;;;;;1.00;0.80;;;25.70;61.50;;;;;;5014679;28;20454;-84
2022/06/21 05:09:42;;;;;;;2.80;1.20;;;25.70;61.40;;;;;;5014599;28;20448;-89
2022/06/21 05:12:13;;;;;;;1.10;1.00;;;25.70;61.50;;;;;;5014549;28;20448;-84
2022/06/21 05:14:46;;;;;;;1.07;0.97;;;25.70;61.50;;;;;;5014623;28;20530;-84
2022/06/21 05:17:17;;;;;;;1.10;0.90;;;25.70;61.50;;;;;;5014371;28;20474;-84
2022/06/21 05:19:48;;;;;;;1.10;1.00;;;25.70;61.50;;;;;;5014290;28;20452;-84
2022/06/21 05:22:22;;;;;;;1.13;1.03;;;25.70;62.40;;;;;;5014298;28;20533;-84
2022/06/21 05:24:50;;;;;;;1.10;0.90;;;25.70;61.50;;;;;;5014273;28;20458;-85
2022/06/21 05:27:23;;;;;;;1.00;0.90;;;25.70;61.60;;;;;;5014073;28;20481;-89
2022/06/21 05:29:56;;;;;;;1.27;1.17;;;25.70;61.60;;;;;;5014123;28;20446;-84
2022/06/21 05:32:28;;;;;;;1.10;0.90;;;25.70;61.60;;;;;;5014322;28;20479;-84
2022/06/21 05:34:59;;;;;;;1.43;0.90;;;25.70;61.50;;;;;;5014234;28;20536;-84
2022/06/21 05:37:30;;;;;;;1.00;0.80;;;25.70;61.60;;;;;;5014140;28;20452;-89
2022/06/21 05:40:00;;;;;;;1.07;0.93;;;25.70;61.60;;;;;;5014105;28;20454;-84
2022/06/21 05:42:28;;;;;;;1.23;1.00;;;25.70;61.60;;;;;;5013996;28;20479;-84
2022/06/21 05:45:02;;;;;;;1.00;0.90;;;25.70;61.60;;;;;;5013933;28;20446;-84
2022/06/21 05:47:34;;;;;;;1.20;0.90;;;25.70;61.60;;;;;;5013972;28;20451;-85
2022/06/21 05:50:05;;;;;;;1.20;1.10;;;25.70;61.60;;;;;;5013914;28;20935;-84
2022/06/21 05:52:35;;;;;;;1.10;1.00;;;25.70;61.60;;;;;;5013986;28;20530;-84
2022/06/21 05:55:05;;;;;;;1.20;0.90;;;25.70;61.60;;;;;;5013809;28;20534;-89
2022/06/21 05:57:43;;;;;;;1.10;1.00;;;25.70;61.60;;;;;;5013909;28;20446;-84
2022/06/21 06:00:25;;;;;;;1.10;1.00;;;25.70;61.60;;;;;;5013835;28;20807;-90
2022/06/21 06:02:56;;;;;;;1.20;1.00;;;25.70;61.50;;;;;;5013646;28;20493;-84
2022/06/21 06:05:30;;;;;;;1.20;1.10;;;25.70;61.60;;;;;;5013674;28;20542;-85
2022/06/21 06:08:02;;;;;;;1.37;1.20;;;25.70;61.50;;;;;;5013755;28;20877;-90
2022/06/21 06:10:31;;;;;;;1.37;1.13;;;25.70;61.50;;;;;;5013557;28;20462;-84
2022/06/21 06:13:02;;;;;;;1.00;0.90;;;25.60;61.50;;;;;;5013606;28;20450;-84
2022/06/21 06:15:34;;;;;;;1.10;0.90;;;25.70;61.50;;;;;;5013652;28;20444;-89
2022/06/21 06:18:06;;;;;;;1.20;1.10;;;25.70;61.50;;;;;;5013490;28;20447;-84
2022/06/21 06:20:38;;;;;;;1.10;1.00;;;25.70;61.60;;;;;;5013567;28;20534;-84
2022/06/21 06:23:13;;;;;;;1.13;1.03;;;25.70;61.60;;;;;;5013523;28;20493;-84
2022/06/21 06:25:44;;;;;;;1.03;0.80;;;25.70;61.60;;;;;;5013503;28;20546;-84
2022/06/21 06:28:20;;;;;;;1.03;0.80;;;25.70;61.60;;;;;;5013271;28;21001;-84
2022/06/21 06:30:56;;;;;;;1.30;1.10;;;25.70;61.60;;;;;;5013532;28;20445;-84
2022/06/21 06:33:27;;;;;;;1.10;0.90;;;25.70;61.50;;;;;;5013489;28;20542;-85
2022/06/21 06:35:56;;;;;;;1.07;0.90;;;25.70;61.60;;;;;;5013373;28;20446;-84
2022/06/21 06:38:23;;;;;;;1.20;1.03;;;25.70;61.50;;;;;;5013085;28;20451;-84
2022/06/21 06:40:54;;;;;;;1.10;1.00;;;25.70;61.60;;;;;;5013258;28;20452;-85
2022/06/21 06:43:27;;;;;;;1.10;0.90;;;25.70;62.40;;;;;;5013136;28;20494;-84
2022/06/21 06:45:58;;;;;;;1.07;0.97;;;25.70;61.50;;;;;;5013138;28;20474;-84
2022/06/21 06:48:29;;;;;;;1.10;0.83;;;25.70;61.50;;;;;;5013147;28;20534;-88
2022/06/21 06:51:03;;;;;;;1.13;1.03;;;25.70;61.60;;;;;;5013171;28;20534;-85
2022/06/21 06:53:35;;;;;;;1.13;0.90;;;25.70;61.50;;;;;;5013197;28;20953;-84
2022/06/21 06:56:08;;;;;;;1.07;0.97;;;25.70;61.50;;;;;;5013196;28;20530;-84
2022/06/21 06:58:41;;;;;;;1.10;1.00;;;25.70;61.60;;;;;;5013158;28;20443;-84
2022/06/21 07:01:15;;;;;;;1.10;1.00;;;25.70;61.50;;;;;;5013155;28;20439;-84
2022/06/21 07:03:47;;;;;;;1.07;0.97;;;25.70;61.60;;;;;;5013146;28;20587;-84
2022/06/21 07:06:18;;;;;;;1.00;0.80;;;25.70;61.50;;;;;;5013113;28;20443;-84
2022/06/21 07:08:48;;;;;;;1.00;0.80;;;25.70;61.50;;;;;;5013070;28;20443;-84
2022/06/21 07:11:22;;;;;;;1.10;1.00;;;25.70;61.50;;;;;;5012986;28;20439;-85
2022/06/21 07:13:49;;;;;;;1.20;0.80;;;25.70;61.60;;;;;;5013246;28;20788;-89
2022/06/21 07:16:23;;;;;;;1.17;1.07;;;25.70;61.50;;;;;;5012853;28;21001;-85
2022/06/21 07:18:53;;;;;;;1.30;1.20;;;25.70;61.50;;;;;;5013005;28;20515;-85
2022/06/21 07:21:21;;;;;;;1.00;0.90;;;25.70;61.40;;;;;;5013069;28;20443;-87
2022/06/21 07:23:52;;;;;;;1.10;0.90;;;25.70;61.40;;;;;;5012803;28;21021;-84
2022/06/21 07:26:27;;;;;;;1.10;1.00;;;25.70;61.50;;;;;;5016496;28;20486;-84
2022/06/21 07:28:57;;;;;;;1.10;1.00;;;25.70;61.40;;;;;;5016472;28;21037;-84
2022/06/21 07:31:31;;;;;;;1.00;0.80;;;25.70;61.40;;;;;;5016558;28;20507;-84
2022/06/21 07:34:01;;;;;;;1.00;0.80;;;25.70;61.40;;;;;;5016444;28;20448;-89
2022/06/21 07:36:32;;;;;;;1.20;0.97;;;25.70;61.40;;;;;;5016609;28;20454;-84
2022/06/21 07:39:05;;;;;;;1.10;1.00;;;25.70;61.30;;;;;;5016382;28;20818;-88
2022/06/21 07:41:37;;;;;;;1.30;0.80;;;25.70;61.40;;;;;;5016362;28;20431;-84
2022/06/21 07:44:09;;;;;;;1.33;1.00;;;25.70;61.30;;;;;;5016398;28;20586;-84
2022/06/21 07:46:41;;;;;;;1.20;0.90;;;25.70;61.40;;;;;;5022336;28;20446;-85
2022/06/21 07:49:14;;;;;;;1.30;0.90;;;25.70;62.00;;;;;;5035515;28;20542;-85
2022/06/21 07:51:46;;;;;;;1.57;1.20;;;25.70;62.30;;;;;;5034703;28;20466;-84
2022/06/21 07:54:16;;;;;;;1.10;0.90;;;25.70;61.40;;;;;;5029112;28;20466;-84
2022/06/21 07:56:47;;;;;;;1.27;1.13;;;25.70;61.40;;;;;;5016319;28;20447;-84
2022/06/21 07:59:18;;;;;;;1.10;0.93;;;25.70;61.40;;;;;;5016026;28;20442;-84
2022/06/21 08:07:28;;;;;;;1.70;1.03;;;25.80;61.50;;;;;;5015960;28;20481;-84
2022/06/21 08:10:01;;;;;;;1.30;1.10;;;25.70;61.40;;;;;;5015831;28;20946;-84
2022/06/21 08:12:28;;;;;;;1.00;0.90;;;25.70;61.40;;;;;;5015835;28;20447;-84
2022/06/21 08:14:55;;;;;;;1.10;0.93;;;25.70;61.40;;;;;;5015767;28;20965;-84
2022/06/21 08:17:32;;;;;;;1.50;1.00;;;25.70;61.40;;;;;;5015673;28;20471;-85
2022/06/21 08:20:08;;;;;;;1.40;0.90;;;25.70;61.40;;;;;;5015683;28;20530;-84
2022/06/21 08:22:38;;;;;;;1.13;1.03;;;25.80;61.50;;;;;;5015696;28;20442;-85
2022/06/21 08:25:17;;;;;;;1.07;0.90;;;25.70;61.50;;;;;;5015580;28;20491;-84
2022/06/21 08:27:51;;;;;;;1.50;1.03;;;25.70;61.50;;;;;;5015352;28;20467;-85
2022/06/21 08:30:20;;;;;;;1.00;0.90;;;25.70;61.50;;;;;;5015612;28;20447;-84
2022/06/21 08:32:55;;;;;;;1.23;1.10;;;25.70;61.50;;;;;;5015542;28;20530;-84
2022/06/21 08:35:28;;;;;;;1.00;0.90;;;25.70;61.50;;;;;;5014932;28;20546;-85
2022/06/21 08:38:01;;;;;;;1.10;1.00;;;25.70;61.50;;;;;;5014843;28;20639;-85
2022/06/21 08:41:02;;;;;;;0.90;0.70;;;25.70;61.50;;;;;;5015396;28;20436;-84
2022/06/21 08:43:57;;;;;;;1.27;1.17;;;25.70;61.50;;;;;;4991954;28;20502;-84
2022/06/21 08:46:59;;;;;;;2.00;1.43;;;25.70;61.50;;;;;;5015176;28;20468;-85
2022/06/21 08:49:55;;;;;;;1.53;0.90;;;25.70;61.40;;;;;;5014970;28;20998;-84
2022/06/21 08:52:48;;;;;;;1.10;0.93;;;25.70;61.50;;;;;;5015221;28;20831;-84
2022/06/21 08:55:24;;;;;;;1.00;0.90;;;25.70;61.40;;;;;;5014954;28;20878;-85
2022/06/21 08:58:02;;;;;;;1.00;0.87;;;25.70;61.50;;;;;;5014817;28;20462;-89
2022/06/21 09:00:34;;;;;;;1.20;0.80;;;25.70;61.50;;;;;;5014950;28;20446;-85
2022/06/21 09:03:15;;;;;;;1.63;1.00;;;25.70;61.40;;;;;;5014984;28;20444;-85
2022/06/21 09:06:05;;;;;;;1.23;1.00;;;25.70;61.40;;;;;;5014880;28;20804;-83
2022/06/21 09:09:04;;;;;;;1.83;0.97;;;25.70;61.40;;;;;;5014744;28;20447;-86
2022/06/21 09:11:37;;;;;;;1.00;0.87;;;25.80;61.50;;;;;;5014707;28;20539;-89
2022/06/21 09:14:40;;;;;;;2.60;1.10;;;25.70;61.50;;;;;;5014704;28;20839;-85
2022/06/21 09:17:16;;;;;;;1.30;0.93;;;25.70;62.30;;;;;;5009536;28;20471;-90
2022/06/21 09:19:58;;;;;;;1.20;1.00;;;25.70;61.40;;;;;;5014510;28;20526;-84
2022/06/21 09:22:40;;;;;;;1.20;1.10;;;25.70;61.50;;;;;;5014715;28;21001;-85
2022/06/21 09:25:16;;;;;;;1.00;0.77;;;25.70;61.50;;;;;;5014466;28;20847;-84
2022/06/21 09:27:49;;;;;;;1.00;0.90;;;25.70;61.40;;;;;;5014148;28;21009;-84
2022/06/21 09:30:20;;;;;;;1.50;1.00;;;25.70;61.40;;;;;;5014326;28;20539;-84
2022/06/21 09:32:55;;;;;;;1.10;1.00;;;25.70;61.40;;;;;;5014417;28;20458;-84
2022/06/21 09:35:36;;;;;;;1.10;0.90;;;25.80;61.40;;;;;;5014573;28;20450;-90
2022/06/21 09:38:17;;;;;;;1.00;0.90;;;25.70;61.30;;;;;;5014204;28;20443;-85
2022/06/21 09:40:51;;;;;;;1.00;0.70;;;25.80;61.40;;;;;;5014357;28;20790;-84
2022/06/21 09:43:30;;;;;;;1.93;0.90;;;25.70;61.30;;;;;;5014174;28;20465;-84
2022/06/21 09:46:05;;;;;;;1.10;0.80;;;25.80;61.40;;;;;;5014056;28;20476;-84
2022/06/21 09:48:44;;;;;;;1.47;0.90;;;25.70;61.30;;;;;;5013827;28;20451;-85
2022/06/21 09:51:19;;;;;;;1.00;0.90;;;25.80;61.40;;;;;;5013985;28;20435;-88
2022/06/21 09:53:56;;;;;;;1.33;0.80;;;25.80;61.40;;;;;;5014049;28;20453;-84
2022/06/21 09:56:42;;;;;;;1.13;0.80;;;25.80;61.40;;;;;;5013962;28;20435;-91
2022/06/21 09:59:16;;;;;;;1.00;0.80;;;25.80;61.40;;;;;;5013575;28;20440;-83
2022/06/21 10:01:52;;;;;;;0.90;0.77;;;25.80;61.40;;;;;;5013932;28;20435;-84
2022/06/21 10:04:29;;;;;;;1.10;1.00;;;25.70;61.40;;;;;;5013783;28;21077;-84
2022/06/21 10:07:06;;;;;;;1.00;0.80;;;25.80;61.40;;;;;;5013711;28;20443;-84
2022/06/21 10:09:46;;;;;;;1.20;1.00;;;25.80;61.40;;;;;;5013699;28;20447;-84
2022/06/21 10:12:24;;;;;;;1.10;1.00;;;25.80;61.40;;;;;;5013834;28;20530;-83
2022/06/21 10:15:11;;;;;;;1.10;0.90;;;25.80;61.40;;;;;;5014708;28;20457;-84
2022/06/21 10:17:54;;;;;;;0.93;0.80;;;25.80;61.40;;;;;;5013422;28;20472;-85
2022/06/21 10:20:52;;;;;;;1.30;1.17;;;25.80;61.40;;;;;;5013774;28;20451;-89
2022/06/21 10:23:43;;;;;;;1.17;0.90;;;25.80;61.40;;;;;;5013530;28;20942;-84
2022/06/21 10:26:37;;;;;;;1.00;0.70;;;25.80;61.50;;;;;;5013239;28;20446;-84
2022/06/21 10:29:30;;;;;;;1.00;0.80;;;25.80;61.50;;;;;;5013343;28;20526;-84
2022/06/21 10:32:16;;;;;;;1.10;0.80;;;25.80;61.40;;;;;;5013567;28;20436;-84
2022/06/21 10:35:06;;;;;;;1.47;0.90;;;25.80;61.40;;;;;;5013472;28;20440;-84
2022/06/21 10:37:45;;;;;;;1.30;1.10;;;25.70;61.40;;;;;;5011510;28;20455;-84
2022/06/21 10:40:37;;;;;;;0.97;0.80;;;25.80;61.50;;;;;;5013673;28;20957;-84
2022/06/21 10:43:29;;;;;;;1.00;0.90;;;25.80;61.40;;;;;;5013389;28;20435;-84
2022/06/21 10:46:00;;;;;;;1.50;1.00;;;25.80;61.40;;;;;;5004973;28;20468;-84
2022/06/21 10:48:57;;;;;;;1.10;0.80;;;25.70;61.40;;;;;;5013290;28;20444;-85
2022/06/21 10:51:37;;;;;;;1.17;1.07;;;25.80;61.40;;;;;;5010989;28;20865;-85
2022/06/21 10:54:17;;;;;;;1.10;1.00;;;25.80;61.40;;;;;;5013247;28;20447;-91
2022/06/21 10:57:12;;;;;;;1.30;1.00;;;25.80;61.40;;;;;;5013367;28;20454;-85
2022/06/21 11:03:03;;;;;;;1.20;0.87;;;25.80;61.40;;;;;;5017285;28;20431;-85
2022/06/21 11:05:37;;;;;;;1.00;0.90;;;25.80;61.40;;;;;;5017081;28;20838;-90
2022/06/21 11:08:12;;;;;;;1.37;0.87;;;25.80;61.40;;;;;;5016972;28;20931;-84
2022/06/21 11:10:48;;;;;;;1.00;0.80;;;25.80;61.40;;;;;;5017009;28;20806;-85
2022/06/21 11:13:17;;;;;;;1.10;0.80;;;25.80;61.30;;;;;;5017605;28;20843;-85
2022/06/21 11:16:00;;;;;;;1.10;0.80;;;25.80;61.30;;;;;;5016914;28;20546;-88
2022/06/21 11:18:45;;;;;;;1.10;0.90;;;25.80;61.30;;;;;;5016709;28;20534;-84
2022/06/21 11:21:25;;;;;;;1.30;0.90;;;25.80;61.30;;;;;;5016823;28;20439;-84
2022/06/21 11:24:01;;;;;;;1.50;1.40;;;25.80;61.30;;;;;;5016684;28;20574;-84
2022/06/21 11:26:38;;;;;;;1.00;0.80;;;25.80;61.40;;;;;;5016698;28;20475;-85
2022/06/21 11:29:12;;;;;;;1.20;0.90;;;25.80;61.40;;;;;;5016542;28;20432;-85
2022/06/21 11:31:47;;;;;;;1.00;0.80;;;25.80;61.40;;;;;;5016513;28;20439;-84
2022/06/21 11:34:24;;;;;;;1.00;0.80;;;25.80;61.30;;;;;;5016744;28;20451;-84
2022/06/21 11:37:00;;;;;;;0.90;0.60;;;25.80;61.30;;;;;;5016643;28;20446;-84
2022/06/21 11:39:36;;;;;;;1.00;0.80;;;25.80;61.30;;;;;;5016509;28;20535;-84
2022/06/21 11:42:14;;;;;;;1.20;0.90;;;25.80;61.20;;;;;;5016316;28;20481;-85
2022/06/21 11:45:20;;;;;;;1.20;0.90;;;25.80;61.30;;;;;;5016391;28;20531;-85
2022/06/21 11:48:08;;;;;;;1.03;0.80;;;25.80;61.20;;;;;;5016226;28;20443;-90
2022/06/21 11:50:45;;;;;;;0.90;0.70;;;25.80;61.40;;;;;;5016159;28;20958;-84
2022/06/21 11:53:41;;;;;;;1.20;0.90;;;25.80;62.30;;;;;;5016207;28;20518;-84
2022/06/21 11:56:13;;;;;;;0.90;0.77;;;25.80;61.30;;;;;;5016092;28;20502;-85
2022/06/21 11:58:47;;;;;;;1.00;0.90;;;25.80;61.40;;;;;;5016028;28;20527;-84
2022/06/21 12:01:20;;;;;;;1.00;0.70;;;25.80;61.40;;;;;;5016332;28;20543;-88
2022/06/21 12:04:00;;;;;;;1.10;0.83;;;25.70;61.30;;;;;;5016992;28;20527;-90
2022/06/21 12:06:35;;;;;;;1.37;0.97;;;25.80;61.40;;;;;;5016257;28;20470;-85
2022/06/21 12:09:12;;;;;;;1.20;1.07;;;25.80;61.30;;;;;;5016010;28;20439;-85
2022/06/21 12:11:57;;;;;;;1.23;0.73;;;25.80;61.40;;;;;;5015737;28;20546;-85
2022/06/21 12:14:34;;;;;;;1.00;0.80;;;25.80;61.40;;;;;;5015947;28;20659;-85
2022/06/21 12:17:07;;;;;;;1.40;0.73;;;25.80;61.40;;;;;;5015617;28;20459;-85
2022/06/21 12:19:40;;;;;;;1.00;0.80;;;25.80;61.40;;;;;;5015414;28;20535;-86
2022/06/21 12:22:23;;;;;;;1.00;0.90;;;25.80;61.40;;;;;;5015699;28;20542;-85
2022/06/21 12:24:50;;;;;;;0.90;0.63;;;25.80;61.40;;;;;;5015598;28;20570;-87
2022/06/21 12:27:18;;;;;;;0.97;0.80;;;25.80;61.40;;;;;;5020583;28;21065;-84
2022/06/21 12:29:45;;;;;;;1.00;0.70;;;25.80;61.40;;;;;;5022011;28;20447;-84
2022/06/21 12:32:19;;;;;;;1.00;0.70;;;25.80;61.40;;;;;;5022543;28;20448;-82
2022/06/21 12:34:55;;;;;;;0.90;0.70;;;25.80;61.30;;;;;;5015736;28;20460;-84
2022/06/21 12:37:26;;;;;;;1.00;0.90;;;25.80;61.30;;;;;;5015382;28;21071;-89
2022/06/21 12:40:00;;;;;;;1.00;0.90;;;25.80;61.40;;;;;;5015087;28;20448;-85
2022/06/21 12:42:45;;;;;;;1.17;0.90;;;25.80;61.40;;;;;;5015262;28;20538;-84
2022/06/21 12:45:24;;;;;;;2.03;0.80;;;25.80;61.30;;;;;;5015188;28;20487;-84
2022/06/21 12:48:04;;;;;;;1.00;0.90;;;25.80;61.30;;;;;;5015153;28;20454;-85
2022/06/21 12:50:47;;;;;;;1.60;0.90;;;25.80;61.30;;;;;;5015131;28;20449;-91
2022/06/21 12:53:54;;;;;;;1.10;0.70;;;25.80;61.30;;;;;;5015154;28;20454;-84
2022/06/21 12:56:38;;;;;;;1.17;0.87;;;25.80;61.30;;;;;;5015109;28;20449;-87
2022/06/21 12:59:35;;;;;;;0.90;0.70;;;25.80;61.30;;;;;;5014867;28;20435;-86
2022/06/21 13:02:22;;;;;;;1.20;0.93;;;25.80;61.30;;;;;;5014862;28;20439;-89
2022/06/21 13:05:07;;;;;;;1.43;0.80;;;25.80;61.30;;;;;;5014718;28;20479;-91
2022/06/21 13:07:47;;;;;;;1.00;0.73;;;25.80;61.30;;;;;;5014912;28;20450;-85
2022/06/21 13:10:31;;;;;;;1.00;0.70;;;25.80;61.40;;;;;;5014782;28;20855;-84
2022/06/21 13:13:26;;;;;;;1.10;0.80;;;25.80;61.30;;;;;;5014792;28;20534;-90
2022/06/21 13:16:05;;;;;;;1.37;0.73;;;25.80;61.30;;;;;;5014569;28;20495;-84
2022/06/21 13:19:01;;;;;;;1.10;0.87;;;25.80;61.80;;;;;;5014418;28;20467;-90
2022/06/21 13:21:41;;;;;;;1.10;0.90;;;25.80;62.20;;;;;;5014324;28;20535;-85
2022/06/21 13:24:25;;;;;;;1.00;0.70;;;25.80;61.40;;;;;;5014444;28;20486;-85
2022/06/21 13:27:07;;;;;;;1.53;0.93;;;25.80;61.40;;;;;;5014574;28;20499;-86
2022/06/21 13:29:47;;;;;;;1.10;1.00;;;25.80;61.40;;;;;;5014525;28;20443;-85
2022/06/21 13:32:22;;;;;;;1.53;1.27;;;25.80;61.40;;;;;;5014531;28;20448;-88
2022/06/21 13:34:53;;;;;;;1.07;0.90;;;25.80;61.40;;;;;;5014401;28;20529;-90
2022/06/21 13:37:26;;;;;;;1.00;0.80;;;25.80;61.50;;;;;;5014472;28;20812;-84
2022/06/21 13:40:01;;;;;;;1.00;0.80;;;25.80;61.50;;;;;;5013770;28;20474;-89